Kezdőlap
METAR-TAF:

METAR-TAF

Repülőterek :

Taskent, Üzbegisztán

földrajzi szélesség: 41-16N, földrajzi hosszúság: 069-16E, magasság: 489 m

Jelenlegi meteorológiai megfigyelések

A jelentés 38 perccel ezelõtt készült, 16:30 UTC
Északkeleti szél 4 kt
Hőmérséklet 8°C
Páratartalom 39%
Légköri nyomás 1026 hPa
Látótávolság: 4000 m
füst

METAR: UTTT 301630Z 04004KT 4000 FU NSC 08/M05 Q1026 R08R/CLRD70 NOSIG

Idő: 22:08 (17:08 UTC)

Előrejelzés

A jelentés 6 órával és 8 perccel ezelõtt készült, 11:00 UTC
Az előrejelzés 30-én 12 óra UTC és 31-én 12 óra UTC között érvényes
Északi szél 12 kt
Látótávolság: 7000 m
30-én 14 óra UTC és 30-én 24 óra UTC között ideiglenes
Különbözõ irányokból fújó szél 2 kt
Látótávolság: 3000 m
Párásság, füst

TAF: UTTT 301100Z 3012/3112 35012KT 7000 NSC TEMPO 3014/3024 VRB02KT 3000 BR FU

Meteorológiai megfigyelések és előrejelzések több, mint 4000 repülőtéren (METAR és TAF jelentéseket).

A térképen piros és sárga pontok jelzik az elérhető meteorológiai állomásokat.

Mozgassa az egeret a pont fölött, hogy megjelenjen az állomás neve.

Azután kattintson az időjárási megfigyelések és előrejelzések megtekintéséhez.

A térkép megváltoztatása: kattintson a fekete keresztel jelölt zöld gombra ráközelítéshez, a vonallal jelölt zöld gombra távolításhoz, vagy a zöld nyilakra a szomszédos térképek eléréséhez.


METAR-TAF: